Roseburg, Oregon
Current Conditions -  °F | °C
As of 10:21 PM on Tuesday 25 Nov 2014 (Local Time) from KRBG Reporting Station
Moderate Fog Moderate Fog  
Wind Chill: 49°   Ceiling: Unl
Heat Index: 49°   Visibility: 0.5mi
Dew Point: 47°   Wind: 0mph
Humidity: 93%   Direction: NA
Pressure: 30.34"   Gusts: NA
Location:  43.21°N, 123.34°W
Report Text: KRBG 260621Z AUTO 00000KT 1/2SM FG CLR 09/08 A3034 RMK AO2 T00940083 TSNO
Loading
Personal Weather Stations






























Interactive Weather Map New forecast layout! Learn more

10-Day Weather Forecast

Advertisements
Track Severe Weather on mobile